Houseville, New York
Current Conditions -  °F | °C
As of 8:53 PM on Monday 20 Oct 2014 (Local Time) from KRME Reporting Station
Overcast Overcast  
Wind Chill: 50°   Ceiling: 7000
Heat Index: 50°   Visibility: 10mi
Dew Point: 40°   Wind: 8mph
Humidity: 68%   Direction: 80°E
Pressure: 29.9"   Gusts: NA
Location:  43.6569°N, 75.4278°W
Report Text: KRME 210053Z AUTO 08007KT 10SM OVC070 10/04 A2990 RMK AO2 SLP127 T01000044
Loading
Personal Weather Stations






























Interactive Weather Map
Tropical Storm Tracking
New forecast layout! Learn more

10-Day Weather Forecast

Advertisements
Track Severe Weather on mobile